Hauptseite
METAR-TAF:

METAR-TAF

Flughäfen :

Holzdorf, Deutschland

Fliegerhorst Holzdorf

Breite: 51-46N, Länge: 013-11E, Höhe: 79 m

Beobachtung

Neuester Wetterbericht von vor 35 Minuten, um 08:20 UTC
Wind 6 kt aus Süd
Temperatur 9°C
Luftfeuchtigkeit 61%
Luftdruck 1009 hPa
Sichtweite 10 km oder mehr
Durchbrochene Bewölkung in der Höhe von 3800 ft

METAR: ETSH 270820Z 19006KT 9999 BKN038 09/02 Q1009 BLU BLU

Zeit: 09:55 (08:55 UTC)

Prognose

Neuester Wetterbericht von vor 34 Minuten, um 08:21 UTC
Gültige Prognose vom 27 um 09 UTC bis 27 um 18 UTC
Wind 10 kt aus Süd/Südwest
Sichtweite 10 km oder mehr
Durchbrochene Bewölkung in der Höhe von 4000 ft

TAF: ETSH 270821Z 2709/2718 21010KT 9999 NSW BKN040

Wetterbeobachtungen und Prognosen von mehr als 4000 Flughäfen (METAR und TAF Bericht).

Die verfügbaren Stationen werden durch gelbe und rote Markierungen auf der Karte dargestellt.

Führen Sie die Maus auf sie, um den Namen der Station zu sehen.

Darauf klicken, um die Beobachtung von Wetterbeobachtungen und Prognosen zu sehen.

Um die Karte zu ändern : klicken Sie auf den grünen Tasten mit einem schwarzen Kreuz Zum Vergrößern, auf den grünen Button mit einem Gedankenstrich zu verkleinern, oder auf die grünen Pfeile für benachbarte Karten.


METAR-TAF: